sensor_id;sensor_type;location;lat;lon;timestamp;pressure;altitude;pressure_sealevel;temperature;humidity
33191;BME280;19554;42.652;23.364;2023-08-07T00:02:23;94053.34;;;18.80;65.66
33191;BME280;19554;42.652;23.364;2023-08-07T00:04:48;94056.09;;;19.00;65.16
33191;BME280;19554;42.652;23.364;2023-08-07T00:07:13;94061.88;;;19.17;64.50
33191;BME280;19554;42.652;23.364;2023-08-07T00:09:39;94062.44;;;19.27;63.89
33191;BME280;19554;42.652;23.364;2023-08-07T00:12:04;94061.38;;;19.31;63.64
33191;BME280;19554;42.652;23.364;2023-08-07T00:14:30;94062.75;;;19.22;63.68
33191;BME280;19554;42.652;23.364;2023-08-07T00:16:55;94069.41;;;19.28;63.59
33191;BME280;19554;42.652;23.364;2023-08-07T00:19:21;94069.56;;;19.15;63.89
33191;BME280;19554;42.652;23.364;2023-08-07T00:21:46;94028.38;;;18.87;64.22
33191;BME280;19554;42.652;23.364;2023-08-07T00:24:11;94063.72;;;18.94;64.45
33191;BME280;19554;42.652;23.364;2023-08-07T00:26:37;94005.66;;;18.56;63.63
33191;BME280;19554;42.652;23.364;2023-08-07T00:29:02;94058.31;;;18.94;63.90
33191;BME280;19554;42.652;23.364;2023-08-07T00:31:27;94058.09;;;19.03;62.92
33191;BME280;19554;42.652;23.364;2023-08-07T00:33:57;94058.56;;;18.89;62.69
33191;BME280;19554;42.652;23.364;2023-08-07T00:36:22;94067.06;;;19.07;61.82
33191;BME280;19554;42.652;23.364;2023-08-07T00:38:48;94066.88;;;19.15;61.62
33191;BME280;19554;42.652;23.364;2023-08-07T00:41:13;94059.53;;;19.16;61.08
33191;BME280;19554;42.652;23.364;2023-08-07T00:43:39;94071.56;;;19.18;60.82
33191;BME280;19554;42.652;23.364;2023-08-07T00:46:04;94088.84;;;19.14;60.70
33191;BME280;19554;42.652;23.364;2023-08-07T00:48:31;94094.63;;;19.12;60.94
33191;BME280;19554;42.652;23.364;2023-08-07T00:50:57;94095.91;;;19.18;61.16
33191;BME280;19554;42.652;23.364;2023-08-07T00:53:23;94079.16;;;19.13;60.58
33191;BME280;19554;42.652;23.364;2023-08-07T00:55:48;94100.91;;;19.36;60.39
33191;BME280;19554;42.652;23.364;2023-08-07T00:58:14;94094.78;;;19.39;60.15
33191;BME280;19554;42.652;23.364;2023-08-07T01:00:39;94098.75;;;19.45;59.80
33191;BME280;19554;42.652;23.364;2023-08-07T01:03:07;94080.97;;;19.44;59.27
33191;BME280;19554;42.652;23.364;2023-08-07T01:05:33;94103.06;;;19.85;58.59
33191;BME280;19554;42.652;23.364;2023-08-07T01:07:59;94099.19;;;20.05;57.52
33191;BME280;19554;42.652;23.364;2023-08-07T01:13:24;94103.81;;;20.05;57.21
33191;BME280;19554;42.652;23.364;2023-08-07T01:15:55;94116.66;;;19.88;58.02
33191;BME280;19554;42.652;23.364;2023-08-07T01:18:25;94124.56;;;19.58;59.84
33191;BME280;19554;42.652;23.364;2023-08-07T01:20:52;94088.06;;;19.13;61.32
33191;BME280;19554;42.652;23.364;2023-08-07T01:23:17;94111.50;;;18.90;62.62
33191;BME280;19554;42.652;23.364;2023-08-07T01:25:43;94115.91;;;18.79;63.11
33191;BME280;19554;42.652;23.364;2023-08-07T01:28:12;94119.72;;;18.46;64.79
33191;BME280;19554;42.652;23.364;2023-08-07T01:30:47;94085.38;;;17.99;65.60
33191;BME280;19554;42.652;23.364;2023-08-07T01:33:19;94117.34;;;18.29;65.73
33191;BME280;19554;42.652;23.364;2023-08-07T01:35:51;94102.91;;;18.21;65.44
33191;BME280;19554;42.652;23.364;2023-08-07T01:38:21;94087.81;;;18.04;65.60
33191;BME280;19554;42.652;23.364;2023-08-07T01:40:50;94109.69;;;18.15;65.99
33191;BME280;19554;42.652;23.364;2023-08-07T01:43:16;94079.47;;;18.09;65.66
33191;BME280;19554;42.652;23.364;2023-08-07T01:45:44;94088.53;;;18.33;65.17
33191;BME280;19554;42.652;23.364;2023-08-07T01:48:09;94077.38;;;18.50;64.27
33191;BME280;19554;42.652;23.364;2023-08-07T01:50:34;94100.53;;;18.83;63.38
33191;BME280;19554;42.652;23.364;2023-08-07T01:53:01;94096.63;;;19.15;62.52
33191;BME280;19554;42.652;23.364;2023-08-07T01:55:27;94103.06;;;19.46;60.80
33191;BME280;19554;42.652;23.364;2023-08-07T01:57:53;94115.47;;;19.67;59.98
33191;BME280;19554;42.652;23.364;2023-08-07T02:00:18;94092.25;;;19.65;59.22
33191;BME280;19554;42.652;23.364;2023-08-07T02:02:44;94113.75;;;19.97;58.61
33191;BME280;19554;42.652;23.364;2023-08-07T02:05:11;94119.41;;;20.11;58.33
33191;BME280;19554;42.652;23.364;2023-08-07T02:07:37;94130.13;;;20.04;58.45
33191;BME280;19554;42.652;23.364;2023-08-07T02:10:02;94134.00;;;20.03;58.72
33191;BME280;19554;42.652;23.364;2023-08-07T02:12:28;94129.88;;;19.90;59.31
33191;BME280;19554;42.652;23.364;2023-08-07T02:14:57;94126.28;;;20.05;58.63
33191;BME280;19554;42.652;23.364;2023-08-07T02:17:24;94134.84;;;20.07;58.75
33191;BME280;19554;42.652;23.364;2023-08-07T02:19:50;94071.28;;;19.62;58.82
33191;BME280;19554;42.652;23.364;2023-08-07T02:22:15;94144.81;;;20.03;59.01
33191;BME280;19554;42.652;23.364;2023-08-07T02:24:41;94147.53;;;19.84;59.57
33191;BME280;19554;42.652;23.364;2023-08-07T02:27:06;94147.94;;;19.86;59.44
33191;BME280;19554;42.652;23.364;2023-08-07T02:29:32;94150.72;;;19.89;59.53
33191;BME280;19554;42.652;23.364;2023-08-07T02:32:00;94152.88;;;19.80;59.58
33191;BME280;19554;42.652;23.364;2023-08-07T02:34:26;94156.19;;;19.54;60.62
33191;BME280;19554;42.652;23.364;2023-08-07T02:36:52;94148.38;;;19.49;60.83
33191;BME280;19554;42.652;23.364;2023-08-07T02:39:17;94143.75;;;19.14;61.77
33191;BME280;19554;42.652;23.364;2023-08-07T02:41:42;94145.59;;;19.10;62.38
33191;BME280;19554;42.652;23.364;2023-08-07T02:44:08;94089.56;;;18.76;62.49
33191;BME280;19554;42.652;23.364;2023-08-07T02:46:33;94158.25;;;19.06;62.39
33191;BME280;19554;42.652;23.364;2023-08-07T02:49:01;94149.06;;;19.11;62.03
33191;BME280;19554;42.652;23.364;2023-08-07T02:51:26;94153.16;;;19.21;62.18
33191;BME280;19554;42.652;23.364;2023-08-07T02:53:52;94163.97;;;19.21;62.06
33191;BME280;19554;42.652;23.364;2023-08-07T02:56:17;94156.69;;;19.05;62.45
33191;BME280;19554;42.652;23.364;2023-08-07T02:58:43;94073.16;;;18.68;61.93
33191;BME280;19554;42.652;23.364;2023-08-07T03:01:08;94149.06;;;19.46;61.12
33191;BME280;19554;42.652;23.364;2023-08-07T03:03:34;94151.38;;;19.63;60.02
33191;BME280;19554;42.652;23.364;2023-08-07T03:05:59;94174.06;;;19.94;59.46
33191;BME280;19554;42.652;23.364;2023-08-07T03:08:25;94177.47;;;20.10;58.69
33191;BME280;19554;42.652;23.364;2023-08-07T03:10:55;94180.44;;;20.25;58.07
33191;BME280;19554;42.652;23.364;2023-08-07T03:13:21;94171.28;;;20.33;57.62
33191;BME280;19554;42.652;23.364;2023-08-07T03:15:46;94160.88;;;20.35;57.24
33191;BME280;19554;42.652;23.364;2023-08-07T03:18:14;94174.25;;;20.47;57.29
33191;BME280;19554;42.652;23.364;2023-08-07T03:20:40;94178.81;;;20.43;57.39
33191;BME280;19554;42.652;23.364;2023-08-07T03:23:05;94181.56;;;20.24;57.83
33191;BME280;19554;42.652;23.364;2023-08-07T03:25:30;94188.44;;;20.18;57.80
33191;BME280;19554;42.652;23.364;2023-08-07T03:27:56;94200.13;;;20.22;57.93
33191;BME280;19554;42.652;23.364;2023-08-07T03:30:21;94196.13;;;20.16;58.23
33191;BME280;19554;42.652;23.364;2023-08-07T03:32:46;94194.66;;;20.18;58.32
33191;BME280;19554;42.652;23.364;2023-08-07T03:35:12;94200.78;;;20.15;57.79
33191;BME280;19554;42.652;23.364;2023-08-07T03:37:37;94200.06;;;20.18;57.94
33191;BME280;19554;42.652;23.364;2023-08-07T03:40:03;94204.84;;;20.25;57.64
33191;BME280;19554;42.652;23.364;2023-08-07T03:42:28;94214.38;;;20.38;56.99
33191;BME280;19554;42.652;23.364;2023-08-07T03:44:54;94209.16;;;20.49;56.19
33191;BME280;19554;42.652;23.364;2023-08-07T03:47:19;94214.03;;;20.20;56.94
33191;BME280;19554;42.652;23.364;2023-08-07T03:49:45;94215.69;;;20.05;57.37
33191;BME280;19554;42.652;23.364;2023-08-07T03:52:10;94222.44;;;20.15;57.62
33191;BME280;19554;42.652;23.364;2023-08-07T03:54:35;94219.81;;;20.19;57.18
33191;BME280;19554;42.652;23.364;2023-08-07T03:57:01;94215.81;;;20.12;56.96
33191;BME280;19554;42.652;23.364;2023-08-07T03:59:27;94212.97;;;20.05;57.39
33191;BME280;19554;42.652;23.364;2023-08-07T04:01:52;94212.69;;;20.10;57.26
33191;BME280;19554;42.652;23.364;2023-08-07T04:04:17;94159.44;;;19.79;56.83
33191;BME280;19554;42.652;23.364;2023-08-07T04:06:43;94232.00;;;20.28;56.86
33191;BME280;19554;42.652;23.364;2023-08-07T04:09:09;94241.13;;;20.40;56.39
33191;BME280;19554;42.652;23.364;2023-08-07T04:11:35;94241.59;;;20.65;55.58
33191;BME280;19554;42.652;23.364;2023-08-07T04:14:01;94243.78;;;20.78;55.12
33191;BME280;19554;42.652;23.364;2023-08-07T04:16:27;94243.91;;;20.86;54.80
33191;BME280;19554;42.652;23.364;2023-08-07T04:18:52;94192.03;;;20.45;55.16
33191;BME280;19554;42.652;23.364;2023-08-07T04:21:17;94244.47;;;20.72;54.47
33191;BME280;19554;42.652;23.364;2023-08-07T04:23:43;94256.91;;;20.53;54.80
33191;BME280;19554;42.652;23.364;2023-08-07T04:26:08;94251.91;;;20.55;55.35
33191;BME280;19554;42.652;23.364;2023-08-07T04:28:34;94250.72;;;20.76;54.28
33191;BME280;19554;42.652;23.364;2023-08-07T04:30:59;94246.25;;;20.87;54.06
33191;BME280;19554;42.652;23.364;2023-08-07T04:33:24;94240.91;;;20.91;53.56
33191;BME280;19554;42.652;23.364;2023-08-07T04:35:50;94254.56;;;20.98;53.44
33191;BME280;19554;42.652;23.364;2023-08-07T04:38:16;94189.09;;;20.34;53.88
33191;BME280;19554;42.652;23.364;2023-08-07T04:40:48;94237.91;;;20.53;54.36
33191;BME280;19554;42.652;23.364;2023-08-07T04:43:15;94252.03;;;20.63;54.41
33191;BME280;19554;42.652;23.364;2023-08-07T04:45:41;94255.06;;;20.80;54.66
33191;BME280;19554;42.652;23.364;2023-08-07T04:48:07;94254.16;;;21.19;53.10
33191;BME280;19554;42.652;23.364;2023-08-07T04:50:33;94257.25;;;21.40;52.45
33191;BME280;19554;42.652;23.364;2023-08-07T04:52:58;94259.47;;;21.35;52.08
33191;BME280;19554;42.652;23.364;2023-08-07T04:55:24;94253.47;;;21.48;51.96
33191;BME280;19554;42.652;23.364;2023-08-07T04:57:50;94245.41;;;21.82;51.23
33191;BME280;19554;42.652;23.364;2023-08-07T05:00:19;94252.78;;;22.12;50.03
33191;BME280;19554;42.652;23.364;2023-08-07T05:02:44;94256.94;;;22.32;49.44
33191;BME280;19554;42.652;23.364;2023-08-07T05:05:10;94257.50;;;22.48;49.06
33191;BME280;19554;42.652;23.364;2023-08-07T05:07:35;94259.41;;;22.44;49.12
33191;BME280;19554;42.652;23.364;2023-08-07T05:10:02;94252.75;;;22.76;48.19
33191;BME280;19554;42.652;23.364;2023-08-07T05:12:28;94235.72;;;22.82;47.85
33191;BME280;19554;42.652;23.364;2023-08-07T05:14:53;94236.81;;;23.15;47.34
33191;BME280;19554;42.652;23.364;2023-08-07T05:17:19;94243.13;;;23.26;46.86
33191;BME280;19554;42.652;23.364;2023-08-07T05:19:44;94250.19;;;23.34;46.00
33191;BME280;19554;42.652;23.364;2023-08-07T05:22:09;94244.63;;;23.20;46.55
33191;BME280;19554;42.652;23.364;2023-08-07T05:24:35;94231.59;;;23.44;45.76
33191;BME280;19554;42.652;23.364;2023-08-07T05:27:05;94229.22;;;23.38;45.73
33191;BME280;19554;42.652;23.364;2023-08-07T05:29:33;94231.97;;;23.42;45.51
33191;BME280;19554;42.652;23.364;2023-08-07T05:31:58;94227.31;;;23.42;45.76
33191;BME280;19554;42.652;23.364;2023-08-07T05:34:24;94245.25;;;23.51;45.41
33191;BME280;19554;42.652;23.364;2023-08-07T05:36:49;94168.41;;;23.24;44.80
33191;BME280;19554;42.652;23.364;2023-08-07T05:39:15;94241.06;;;23.64;44.99
33191;BME280;19554;42.652;23.364;2023-08-07T05:41:40;94245.09;;;23.84;44.89
33191;BME280;19554;42.652;23.364;2023-08-07T05:44:05;94237.00;;;23.99;44.25
33191;BME280;19554;42.652;23.364;2023-08-07T05:46:31;94230.19;;;24.41;43.44
33191;BME280;19554;42.652;23.364;2023-08-07T05:48:56;94239.97;;;24.49;42.70
33191;BME280;19554;42.652;23.364;2023-08-07T05:51:21;94236.84;;;24.50;42.41
33191;BME280;19554;42.652;23.364;2023-08-07T05:53:47;94244.66;;;24.52;42.47
33191;BME280;19554;42.652;23.364;2023-08-07T05:56:12;94246.97;;;24.50;42.60
33191;BME280;19554;42.652;23.364;2023-08-07T05:58:37;94194.28;;;24.31;41.96
33191;BME280;19554;42.652;23.364;2023-08-07T06:01:03;94245.06;;;24.68;41.32
33191;BME280;19554;42.652;23.364;2023-08-07T06:03:28;94246.69;;;24.98;41.32
33191;BME280;19554;42.652;23.364;2023-08-07T06:05:54;94227.25;;;25.14;40.96
33191;BME280;19554;42.652;23.364;2023-08-07T06:08:19;94233.09;;;25.34;40.04
33191;BME280;19554;42.652;23.364;2023-08-07T06:10:45;94238.94;;;25.28;40.40
33191;BME280;19554;42.652;23.364;2023-08-07T06:13:10;94241.66;;;25.25;40.48
33191;BME280;19554;42.652;23.364;2023-08-07T06:15:35;94198.75;;;25.18;40.20
33191;BME280;19554;42.652;23.364;2023-08-07T06:18:02;94236.56;;;25.81;39.20
33191;BME280;19554;42.652;23.364;2023-08-07T06:20:27;94229.94;;;25.82;39.29
33191;BME280;19554;42.652;23.364;2023-08-07T06:22:52;94213.91;;;25.69;39.03
33191;BME280;19554;42.652;23.364;2023-08-07T06:25:18;94224.47;;;25.46;39.11
33191;BME280;19554;42.652;23.364;2023-08-07T06:27:44;94193.69;;;25.27;39.37
33191;BME280;19554;42.652;23.364;2023-08-07T06:30:11;94219.78;;;25.64;39.45
33191;BME280;19554;42.652;23.364;2023-08-07T06:32:36;94218.22;;;25.63;38.73
33191;BME280;19554;42.652;23.364;2023-08-07T06:35:03;94220.56;;;25.83;38.12
33191;BME280;19554;42.652;23.364;2023-08-07T06:37:28;94220.13;;;25.88;37.54
33191;BME280;19554;42.652;23.364;2023-08-07T06:39:53;94191.69;;;25.46;38.42
33191;BME280;19554;42.652;23.364;2023-08-07T06:42:19;94216.66;;;25.69;38.53
33191;BME280;19554;42.652;23.364;2023-08-07T06:44:44;94199.50;;;25.58;36.51
33191;BME280;19554;42.652;23.364;2023-08-07T06:47:10;94164.38;;;25.39;35.97
33191;BME280;19554;42.652;23.364;2023-08-07T06:49:35;94227.56;;;25.91;35.27
33191;BME280;19554;42.652;23.364;2023-08-07T06:52:01;94236.16;;;25.79;35.00
33191;BME280;19554;42.652;23.364;2023-08-07T06:54:27;94227.22;;;25.46;35.21
33191;BME280;19554;42.652;23.364;2023-08-07T06:56:52;94228.34;;;25.70;34.42
33191;BME280;19554;42.652;23.364;2023-08-07T06:59:18;94233.44;;;25.03;34.99
33191;BME280;19554;42.652;23.364;2023-08-07T07:01:43;94228.78;;;25.40;34.94
33191;BME280;19554;42.652;23.364;2023-08-07T07:04:09;94235.41;;;25.60;34.33
33191;BME280;19554;42.652;23.364;2023-08-07T07:06:37;94233.06;;;25.69;35.54
33191;BME280;19554;42.652;23.364;2023-08-07T07:09:03;94233.84;;;25.81;34.34
33191;BME280;19554;42.652;23.364;2023-08-07T07:11:28;94222.50;;;25.79;34.47
33191;BME280;19554;42.652;23.364;2023-08-07T07:13:53;94217.50;;;25.23;35.03
33191;BME280;19554;42.652;23.364;2023-08-07T07:16:19;94224.91;;;25.41;35.50
33191;BME280;19554;42.652;23.364;2023-08-07T07:18:50;94231.47;;;25.90;34.59
33191;BME280;19554;42.652;23.364;2023-08-07T07:21:15;94219.75;;;25.79;34.36
33191;BME280;19554;42.652;23.364;2023-08-07T07:23:41;94234.97;;;25.94;33.71
33191;BME280;19554;42.652;23.364;2023-08-07T07:26:06;94178.47;;;25.26;33.79
33191;BME280;19554;42.652;23.364;2023-08-07T07:28:31;94222.13;;;25.66;34.51
33191;BME280;19554;42.652;23.364;2023-08-07T07:30:57;94210.78;;;25.60;34.54
33191;BME280;19554;42.652;23.364;2023-08-07T07:33:22;94225.97;;;26.00;34.81
33191;BME280;19554;42.652;23.364;2023-08-07T07:35:48;94222.06;;;25.98;34.93
33191;BME280;19554;42.652;23.364;2023-08-07T07:38:13;94235.34;;;26.07;34.73
33191;BME280;19554;42.652;23.364;2023-08-07T07:40:40;94229.00;;;26.28;34.51
33191;BME280;19554;42.652;23.364;2023-08-07T07:43:06;94203.94;;;26.43;34.84
33191;BME280;19554;42.652;23.364;2023-08-07T07:45:31;94217.94;;;26.63;33.72
33191;BME280;19554;42.652;23.364;2023-08-07T07:47:59;94228.78;;;26.78;34.17
33191;BME280;19554;42.652;23.364;2023-08-07T07:50:24;94224.13;;;26.75;33.93
33191;BME280;19554;42.652;23.364;2023-08-07T07:52:49;94222.41;;;26.99;33.27
33191;BME280;19554;42.652;23.364;2023-08-07T07:55:15;94176.38;;;26.76;32.77
33191;BME280;19554;42.652;23.364;2023-08-07T07:57:41;94222.72;;;26.38;33.92
33191;BME280;19554;42.652;23.364;2023-08-07T08:00:07;94224.28;;;26.32;34.23
33191;BME280;19554;42.652;23.364;2023-08-07T08:02:44;94221.22;;;26.22;34.59
33191;BME280;19554;42.652;23.364;2023-08-07T08:05:10;94226.97;;;26.42;34.50
33191;BME280;19554;42.652;23.364;2023-08-07T08:07:37;94218.78;;;26.39;33.71
33191;BME280;19554;42.652;23.364;2023-08-07T08:10:08;94216.44;;;26.41;33.87
33191;BME280;19554;42.652;23.364;2023-08-07T08:12:34;94225.78;;;26.54;34.36
33191;BME280;19554;42.652;23.364;2023-08-07T08:15:00;94206.13;;;26.70;33.60
33191;BME280;19554;42.652;23.364;2023-08-07T08:17:25;94217.88;;;26.70;33.30
33191;BME280;19554;42.652;23.364;2023-08-07T08:19:51;94220.81;;;27.01;33.37
33191;BME280;19554;42.652;23.364;2023-08-07T08:22:16;94213.31;;;27.12;33.25
33191;BME280;19554;42.652;23.364;2023-08-07T08:24:41;94215.19;;;27.23;32.74
33191;BME280;19554;42.652;23.364;2023-08-07T08:27:07;94199.84;;;26.77;33.35
33191;BME280;19554;42.652;23.364;2023-08-07T08:29:32;94206.69;;;27.06;33.11
33191;BME280;19554;42.652;23.364;2023-08-07T08:31:58;94192.16;;;27.16;32.85
33191;BME280;19554;42.652;23.364;2023-08-07T08:34:25;94207.25;;;27.39;32.77
33191;BME280;19554;42.652;23.364;2023-08-07T08:36:50;94206.09;;;27.78;31.80
33191;BME280;19554;42.652;23.364;2023-08-07T08:39:16;94195.75;;;27.51;31.63
33191;BME280;19554;42.652;23.364;2023-08-07T08:41:43;94208.34;;;26.93;32.17
33191;BME280;19554;42.652;23.364;2023-08-07T08:44:12;94206.03;;;26.88;33.10
33191;BME280;19554;42.652;23.364;2023-08-07T08:46:41;94200.41;;;27.09;32.52
33191;BME280;19554;42.652;23.364;2023-08-07T08:49:08;94197.25;;;27.11;31.62
33191;BME280;19554;42.652;23.364;2023-08-07T08:51:35;94207.78;;;26.60;32.27
33191;BME280;19554;42.652;23.364;2023-08-07T08:54:01;94211.72;;;26.52;32.62
33191;BME280;19554;42.652;23.364;2023-08-07T08:56:29;94200.47;;;26.29;33.10
33191;BME280;19554;42.652;23.364;2023-08-07T08:58:56;94193.03;;;26.33;32.73
33191;BME280;19554;42.652;23.364;2023-08-07T09:01:21;94118.31;;;25.51;32.92
33191;BME280;19554;42.652;23.364;2023-08-07T09:03:47;94192.81;;;25.73;33.46
33191;BME280;19554;42.652;23.364;2023-08-07T09:06:13;94190.13;;;25.59;33.77
33191;BME280;19554;42.652;23.364;2023-08-07T09:08:43;94182.34;;;25.54;33.64
33191;BME280;19554;42.652;23.364;2023-08-07T09:11:10;94172.13;;;25.76;33.50
33191;BME280;19554;42.652;23.364;2023-08-07T09:13:37;94181.41;;;26.07;33.42
33191;BME280;19554;42.652;23.364;2023-08-07T09:16:04;94171.25;;;26.04;33.04
33191;BME280;19554;42.652;23.364;2023-08-07T09:18:29;94178.72;;;25.93;33.19
33191;BME280;19554;42.652;23.364;2023-08-07T09:20:56;94185.44;;;25.56;33.82
33191;BME280;19554;42.652;23.364;2023-08-07T09:23:24;94171.31;;;25.86;33.58
33191;BME280;19554;42.652;23.364;2023-08-07T09:25:59;94170.41;;;26.21;32.95
33191;BME280;19554;42.652;23.364;2023-08-07T09:28:24;94175.84;;;26.29;32.44
33191;BME280;19554;42.652;23.364;2023-08-07T09:30:52;94155.44;;;26.48;32.65
33191;BME280;19554;42.652;23.364;2023-08-07T09:33:27;94140.81;;;26.02;32.49
33191;BME280;19554;42.652;23.364;2023-08-07T09:35:53;94149.53;;;25.47;33.91
33191;BME280;19554;42.652;23.364;2023-08-07T09:38:22;94155.00;;;25.47;34.13
33191;BME280;19554;42.652;23.364;2023-08-07T09:40:48;94100.75;;;25.45;33.72
33191;BME280;19554;42.652;23.364;2023-08-07T09:43:20;94165.81;;;25.97;33.61
33191;BME280;19554;42.652;23.364;2023-08-07T09:45:46;94156.31;;;26.27;33.11
33191;BME280;19554;42.652;23.364;2023-08-07T09:48:11;94076.38;;;25.90;32.81
33191;BME280;19554;42.652;23.364;2023-08-07T09:50:38;94152.84;;;26.12;33.67
33191;BME280;19554;42.652;23.364;2023-08-07T09:53:03;94159.06;;;26.27;33.40
33191;BME280;19554;42.652;23.364;2023-08-07T09:55:29;94152.31;;;26.42;32.86
33191;BME280;19554;42.652;23.364;2023-08-07T09:57:54;94160.09;;;26.54;33.09
33191;BME280;19554;42.652;23.364;2023-08-07T10:00:20;94082.81;;;26.29;32.84
33191;BME280;19554;42.652;23.364;2023-08-07T10:02:48;94155.31;;;26.69;33.14
33191;BME280;19554;42.652;23.364;2023-08-07T10:05:14;94161.50;;;26.77;32.69
33191;BME280;19554;42.652;23.364;2023-08-07T10:07:40;94102.13;;;26.66;33.44
33191;BME280;19554;42.652;23.364;2023-08-07T10:10:07;94155.75;;;27.16;31.66
33191;BME280;19554;42.652;23.364;2023-08-07T10:12:33;94151.25;;;26.91;32.09
33191;BME280;19554;42.652;23.364;2023-08-07T10:14:59;94161.53;;;26.73;32.35
33191;BME280;19554;42.652;23.364;2023-08-07T10:17:26;94138.91;;;26.65;32.33
33191;BME280;19554;42.652;23.364;2023-08-07T10:19:52;94111.75;;;26.26;32.55
33191;BME280;19554;42.652;23.364;2023-08-07T10:22:24;94156.03;;;26.77;32.61
33191;BME280;19554;42.652;23.364;2023-08-07T10:24:50;94105.34;;;26.54;32.43
33191;BME280;19554;42.652;23.364;2023-08-07T10:27:19;94153.41;;;27.11;32.02
33191;BME280;19554;42.652;23.364;2023-08-07T10:29:46;94159.13;;;27.31;32.44
33191;BME280;19554;42.652;23.364;2023-08-07T10:32:13;94153.91;;;27.47;32.21
33191;BME280;19554;42.652;23.364;2023-08-07T10:34:42;94167.09;;;27.59;31.83
33191;BME280;19554;42.652;23.364;2023-08-07T10:37:32;94149.22;;;27.44;32.09
33191;BME280;19554;42.652;23.364;2023-08-07T10:40:04;94154.72;;;27.44;32.46
33191;BME280;19554;42.652;23.364;2023-08-07T10:42:59;94145.75;;;27.40;32.48
33191;BME280;19554;42.652;23.364;2023-08-07T10:45:26;94142.31;;;27.32;32.06
33191;BME280;19554;42.652;23.364;2023-08-07T10:50:34;94131.97;;;27.47;32.24
33191;BME280;19554;42.652;23.364;2023-08-07T10:53:01;94141.88;;;27.72;31.52
33191;BME280;19554;42.652;23.364;2023-08-07T10:55:31;94146.72;;;27.60;31.25
33191;BME280;19554;42.652;23.364;2023-08-07T10:57:56;94143.66;;;27.51;31.50
33191;BME280;19554;42.652;23.364;2023-08-07T11:00:26;94084.56;;;27.12;31.48
33191;BME280;19554;42.652;23.364;2023-08-07T11:02:52;94134.69;;;27.06;31.63
33191;BME280;19554;42.652;23.364;2023-08-07T11:05:17;94133.00;;;27.23;32.36
33191;BME280;19554;42.652;23.364;2023-08-07T11:07:45;94095.66;;;26.94;32.11
33191;BME280;19554;42.652;23.364;2023-08-07T11:10:13;94112.25;;;27.22;32.13
33191;BME280;19554;42.652;23.364;2023-08-07T11:12:43;94118.75;;;27.35;32.35
33191;BME280;19554;42.652;23.364;2023-08-07T11:15:12;94111.03;;;27.26;31.86
33191;BME280;19554;42.652;23.364;2023-08-07T11:17:38;94105.53;;;27.30;32.26
33191;BME280;19554;42.652;23.364;2023-08-07T11:20:06;94111.81;;;27.27;31.99
33191;BME280;19554;42.652;23.364;2023-08-07T11:22:31;94102.97;;;27.50;31.74
33191;BME280;19554;42.652;23.364;2023-08-07T11:24:56;94098.41;;;27.36;31.80
33191;BME280;19554;42.652;23.364;2023-08-07T11:27:22;94100.78;;;27.34;32.03
33191;BME280;19554;42.652;23.364;2023-08-07T11:29:48;94104.13;;;27.07;31.78
33191;BME280;19554;42.652;23.364;2023-08-07T11:32:14;94083.47;;;26.54;32.37
33191;BME280;19554;42.652;23.364;2023-08-07T11:34:40;94092.75;;;26.67;32.55
33191;BME280;19554;42.652;23.364;2023-08-07T11:37:05;94083.66;;;26.78;32.20
33191;BME280;19554;42.652;23.364;2023-08-07T11:39:31;94064.78;;;26.87;31.98
33191;BME280;19554;42.652;23.364;2023-08-07T11:41:56;94086.22;;;26.99;32.22
33191;BME280;19554;42.652;23.364;2023-08-07T11:44:22;94092.25;;;27.25;31.64
33191;BME280;19554;42.652;23.364;2023-08-07T11:46:50;94094.72;;;27.15;31.34
33191;BME280;19554;42.652;23.364;2023-08-07T11:49:15;94092.56;;;26.89;32.19
33191;BME280;19554;42.652;23.364;2023-08-07T11:51:41;94097.56;;;26.42;33.52
33191;BME280;19554;42.652;23.364;2023-08-07T11:54:06;94106.72;;;26.17;33.32
33191;BME280;19554;42.652;23.364;2023-08-07T11:56:32;94101.81;;;25.76;34.43
33191;BME280;19554;42.652;23.364;2023-08-07T11:58:58;94092.03;;;25.90;34.32
33191;BME280;19554;42.652;23.364;2023-08-07T12:01:25;94088.41;;;26.07;33.86
33191;BME280;19554;42.652;23.364;2023-08-07T12:06:29;94091.34;;;26.38;33.34
33191;BME280;19554;42.652;23.364;2023-08-07T12:08:56;94086.38;;;26.22;33.42
33191;BME280;19554;42.652;23.364;2023-08-07T12:11:22;94065.59;;;26.32;33.35
33191;BME280;19554;42.652;23.364;2023-08-07T12:13:48;94088.97;;;26.51;33.58
33191;BME280;19554;42.652;23.364;2023-08-07T12:16:15;94078.72;;;26.58;32.98
33191;BME280;19554;42.652;23.364;2023-08-07T12:18:47;94073.94;;;26.69;33.20
33191;BME280;19554;42.652;23.364;2023-08-07T12:21:14;94068.31;;;26.91;32.76
33191;BME280;19554;42.652;23.364;2023-08-07T12:23:41;94077.69;;;26.90;32.17
33191;BME280;19554;42.652;23.364;2023-08-07T12:26:06;94078.56;;;26.76;32.64
33191;BME280;19554;42.652;23.364;2023-08-07T12:28:34;94065.09;;;26.96;32.33
33191;BME280;19554;42.652;23.364;2023-08-07T12:30:59;94008.13;;;26.32;32.74
33191;BME280;19554;42.652;23.364;2023-08-07T12:33:25;94063.88;;;26.56;33.37
33191;BME280;19554;42.652;23.364;2023-08-07T12:35:51;94054.53;;;26.53;33.80
33191;BME280;19554;42.652;23.364;2023-08-07T12:38:16;94068.63;;;26.44;33.99
33191;BME280;19554;42.652;23.364;2023-08-07T12:40:42;94064.72;;;26.49;33.66
33191;BME280;19554;42.652;23.364;2023-08-07T12:43:08;94062.25;;;26.65;33.52
33191;BME280;19554;42.652;23.364;2023-08-07T12:45:34;94066.22;;;26.57;34.40
33191;BME280;19554;42.652;23.364;2023-08-07T12:48:00;94069.19;;;26.77;34.57
33191;BME280;19554;42.652;23.364;2023-08-07T12:50:27;94074.50;;;26.95;33.95
33191;BME280;19554;42.652;23.364;2023-08-07T12:52:52;94074.41;;;27.06;34.05
33191;BME280;19554;42.652;23.364;2023-08-07T12:55:18;94082.13;;;27.22;33.87